createdAt,value
2019-04-16T00:01:02.627Z,12.82
2019-04-16T00:03:34.396Z,11.45
2019-04-16T00:06:16.643Z,12.55
2019-04-16T00:09:02.035Z,12.90
2019-04-16T00:11:57.411Z,13.03
2019-04-16T00:14:34.688Z,12.73
2019-04-16T00:17:07.010Z,13.40
2019-04-16T00:19:38.789Z,10.48
2019-04-16T00:22:21.029Z,13.03
2019-04-16T00:24:55.044Z,11.80
2019-04-16T00:27:28.724Z,11.93
2019-04-16T00:30:04.899Z,11.70
2019-04-16T00:32:38.038Z,12.15
2019-04-16T00:35:15.397Z,11.70
2019-04-16T00:37:44.475Z,12.20
2019-04-16T00:40:16.229Z,12.75
2019-04-16T00:42:47.973Z,14.45
2019-04-16T00:45:19.749Z,14.83
2019-04-16T00:47:52.158Z,14.38
2019-04-16T00:50:24.124Z,15.93
2019-04-16T00:52:55.956Z,15.32
2019-04-16T00:55:28.004Z,16.82
2019-04-16T00:57:59.800Z,15.08
2019-04-16T01:00:32.668Z,15.93
2019-04-16T01:03:05.248Z,13.93
2019-04-16T01:05:36.983Z,16.27
2019-04-16T01:08:08.725Z,14.95
2019-04-16T01:10:40.486Z,12.90
2019-04-16T01:13:12.315Z,14.65
2019-04-16T01:15:44.166Z,12.35
2019-04-16T01:18:15.925Z,13.32
2019-04-16T01:20:47.942Z,13.30
2019-04-16T01:23:19.748Z,12.82
2019-04-16T01:25:56.184Z,15.55
2019-04-16T01:28:31.995Z,16.67
2019-04-16T01:31:14.780Z,16.40
2019-04-16T01:34:23.630Z,14.95
2019-04-16T01:37:25.807Z,13.25
2019-04-16T01:39:58.138Z,14.47
2019-04-16T01:42:29.903Z,14.47
2019-04-16T01:45:02.876Z,13.98
2019-04-16T01:47:37.106Z,12.70
2019-04-16T01:50:12.923Z,14.65
2019-04-16T01:52:42.243Z,16.45
2019-04-16T01:55:14.094Z,15.30
2019-04-16T01:57:48.629Z,15.65
2019-04-16T02:00:22.198Z,16.27
2019-04-16T02:02:54.001Z,16.45
2019-04-16T02:05:25.720Z,18.00
2019-04-16T02:07:59.245Z,18.50
2019-04-16T02:10:31.155Z,18.30
2019-04-16T02:13:04.302Z,15.72
2019-04-16T02:15:36.069Z,15.98
2019-04-16T02:18:08.221Z,15.72
2019-04-16T02:20:40.259Z,12.80
2019-04-16T02:23:13.553Z,14.78
2019-04-16T02:25:45.481Z,14.05
2019-04-16T02:28:17.324Z,13.85
2019-04-16T02:30:50.372Z,12.88
2019-04-16T02:33:22.165Z,13.78
2019-04-16T02:35:54.102Z,12.98
2019-04-16T02:38:28.135Z,11.65
2019-04-16T02:40:59.899Z,12.05
2019-04-16T02:43:39.697Z,10.78
2019-04-16T02:46:07.459Z,11.22
2019-04-16T02:48:41.980Z,12.15
2019-04-16T02:51:22.088Z,11.88
2019-04-16T02:54:13.191Z,11.97
2019-04-16T02:57:12.958Z,12.98
2019-04-16T02:59:47.383Z,11.88
2019-04-16T03:02:40.075Z,11.65
2019-04-16T03:05:37.997Z,12.35
2019-04-16T03:08:10.068Z,12.00
2019-04-16T03:10:44.613Z,15.32
2019-04-16T03:13:15.673Z,16.75
2019-04-16T03:15:56.353Z,14.73
2019-04-16T03:18:36.778Z,15.45
2019-04-16T03:21:08.534Z,15.65
2019-04-16T03:23:40.531Z,13.75
2019-04-16T03:26:16.365Z,15.00
2019-04-16T03:28:45.821Z,15.35
2019-04-16T03:31:22.139Z,16.55
2019-04-16T03:33:51.454Z,16.37
2019-04-16T03:36:23.204Z,16.37
2019-04-16T03:38:55.040Z,16.37
2019-04-16T03:41:26.810Z,16.00
2019-04-16T03:44:03.630Z,16.52
2019-04-16T03:46:33.281Z,16.15
2019-04-16T03:49:05.267Z,16.07
2019-04-16T03:51:38.155Z,13.88
2019-04-16T03:54:09.951Z,13.05
2019-04-16T03:56:42.134Z,13.43
2019-04-16T03:59:13.936Z,14.93
2019-04-16T04:01:46.877Z,15.05
2019-04-16T04:04:18.876Z,16.17
2019-04-16T04:06:50.967Z,14.03
2019-04-16T04:09:23.012Z,13.62
2019-04-16T04:11:54.815Z,14.55
2019-04-16T04:14:26.671Z,13.78
2019-04-16T04:17:05.413Z,13.15
2019-04-16T04:19:33.988Z,13.55
2019-04-16T04:22:05.803Z,13.68
2019-04-16T04:24:37.544Z,15.60
2019-04-16T04:27:12.840Z,14.45
2019-04-16T04:29:46.137Z,15.13
2019-04-16T04:32:18.004Z,13.58
2019-04-16T04:34:51.665Z,13.88
2019-04-16T04:37:23.516Z,15.90
2019-04-16T04:39:55.301Z,12.50
2019-04-16T04:42:28.360Z,14.55
2019-04-16T04:45:08.421Z,14.33
2019-04-16T04:47:36.846Z,13.43
2019-04-16T04:50:08.687Z,13.60
2019-04-16T04:52:40.489Z,14.47
2019-04-16T04:55:12.266Z,15.72
2019-04-16T04:57:44.131Z,15.00
2019-04-16T05:00:15.867Z,15.00
2019-04-16T05:02:47.626Z,16.57
2019-04-16T05:05:25.742Z,16.82
2019-04-16T05:08:00.013Z,16.87
2019-04-16T05:10:31.527Z,16.10
2019-04-16T05:13:04.109Z,14.63
2019-04-16T05:15:35.922Z,14.95
2019-04-16T05:18:09.759Z,15.75
2019-04-16T05:20:41.393Z,15.55
2019-04-16T05:23:14.138Z,15.05
2019-04-16T05:25:47.506Z,14.30
2019-04-16T05:28:19.277Z,14.70
2019-04-16T05:30:52.182Z,14.47
2019-04-16T05:33:24.992Z,13.32
2019-04-16T05:35:59.347Z,13.90
2019-04-16T05:38:30.310Z,14.35
2019-04-16T05:41:13.219Z,14.25
2019-04-16T05:43:38.525Z,13.10
2019-04-16T05:46:10.357Z,14.15
2019-04-16T05:48:42.167Z,13.83
2019-04-16T05:51:15.831Z,13.03
2019-04-16T05:53:51.709Z,12.93
2019-04-16T05:56:31.491Z,13.60
2019-04-16T05:59:04.588Z,12.03
2019-04-16T06:01:59.230Z,11.65
2019-04-16T06:04:30.971Z,11.12
2019-04-16T06:07:07.449Z,13.15
2019-04-16T06:09:38.264Z,13.72
2019-04-16T06:12:10.245Z,14.38
2019-04-16T06:14:51.468Z,14.85
2019-04-16T06:17:51.188Z,14.65
2019-04-16T06:20:53.029Z,13.53
2019-04-16T06:23:32.667Z,13.72
2019-04-16T06:26:24.136Z,12.75
2019-04-16T06:29:03.686Z,13.68
2019-04-16T06:31:41.891Z,12.18
2019-04-16T06:34:41.508Z,11.78
2019-04-16T06:37:21.554Z,11.90
2019-04-16T06:40:12.279Z,12.47
2019-04-16T06:42:51.443Z,11.25
2019-04-16T06:45:45.046Z,11.55
2019-04-16T06:48:25.483Z,11.40
2019-04-16T06:51:25.226Z,11.43
2019-04-16T06:54:32.843Z,11.88
2019-04-16T06:57:22.906Z,12.05
2019-04-16T07:00:13.563Z,12.53
2019-04-16T07:03:03.128Z,12.60
2019-04-16T07:05:42.078Z,13.22
2019-04-16T07:08:36.945Z,12.13
2019-04-16T07:11:00.438Z,13.03
2019-04-16T07:13:32.851Z,13.35
2019-04-16T07:16:05.323Z,13.00
2019-04-16T07:18:39.686Z,11.55
2019-04-16T07:21:11.489Z,11.45
2019-04-16T07:23:46.430Z,11.12
2019-04-16T07:26:17.313Z,10.95
2019-04-16T07:29:07.929Z,10.15
2019-04-16T07:31:48.109Z,10.15
2019-04-16T07:34:33.470Z,10.43
2019-04-16T07:37:24.127Z,9.35
2019-04-16T07:40:14.925Z,10.25
2019-04-16T07:42:59.027Z,8.40
2019-04-16T07:45:39.047Z,8.70
2019-04-16T07:48:28.342Z,9.03
2019-04-16T07:51:17.869Z,8.80
2019-04-16T07:54:11.639Z,8.15
2019-04-16T07:56:46.339Z,8.30
2019-04-16T07:59:18.135Z,8.60
2019-04-16T08:01:49.948Z,8.08
2019-04-16T08:04:28.993Z,7.35
2019-04-16T08:07:00.758Z,7.03
2019-04-16T08:09:33.896Z,7.75
2019-04-16T08:12:10.833Z,7.12
2019-04-16T08:14:39.165Z,6.67
2019-04-16T08:17:10.978Z,7.20
2019-04-16T08:19:44.812Z,6.37
2019-04-16T08:22:16.795Z,7.10
2019-04-16T08:24:57.211Z,7.17
2019-04-16T08:27:27.035Z,8.13
2019-04-16T08:30:02.123Z,7.45
2019-04-16T08:32:34.364Z,7.30
2019-04-16T08:35:08.450Z,9.30
2019-04-16T08:37:48.928Z,8.35
2019-04-16T08:40:15.481Z,7.58
2019-04-16T08:42:47.682Z,7.40
2019-04-16T08:45:20.794Z,15.58
2019-04-16T08:47:52.909Z,54.53
2019-04-16T08:50:26.269Z,73.10
2019-04-16T08:52:58.571Z,21.77
2019-04-16T08:55:31.845Z,10.05
2019-04-16T08:58:06.312Z,9.23
2019-04-16T09:00:39.177Z,8.50
2019-04-16T09:03:11.428Z,9.53
2019-04-16T09:05:43.686Z,10.70
2019-04-16T09:08:37.873Z,9.18
2019-04-16T09:11:22.338Z,8.30
2019-04-16T09:13:48.521Z,8.05
2019-04-16T09:16:21.341Z,8.58
2019-04-16T09:19:12.741Z,7.78
2019-04-16T09:21:44.927Z,8.88
2019-04-16T09:24:40.186Z,7.28
2019-04-16T09:27:28.597Z,9.65
2019-04-16T09:30:35.085Z,10.30
2019-04-16T09:33:30.438Z,8.35
2019-04-16T09:36:09.737Z,7.53
2019-04-16T09:38:55.110Z,7.95
2019-04-16T09:41:55.501Z,8.35
2019-04-16T09:44:32.467Z,9.08
2019-04-16T09:47:05.398Z,9.50
2019-04-16T09:49:38.944Z,9.08
2019-04-16T09:52:11.731Z,9.18
2019-04-16T09:54:45.181Z,8.55
2019-04-16T09:57:17.824Z,10.60
2019-04-16T09:59:54.149Z,9.33
2019-04-16T10:02:31.717Z,9.10
2019-04-16T10:05:04.470Z,8.80
2019-04-16T10:07:39.746Z,10.15
2019-04-16T10:10:10.472Z,8.50
2019-04-16T10:12:43.376Z,8.58
2019-04-16T10:15:16.650Z,9.83
2019-04-16T10:17:51.286Z,8.28
2019-04-16T10:20:24.991Z,9.05
2019-04-16T10:22:59.256Z,9.25
2019-04-16T10:25:33.637Z,8.40
2019-04-16T10:28:20.382Z,8.58
2019-04-16T10:30:54.763Z,7.97
2019-04-16T10:33:28.143Z,7.80
2019-04-16T10:36:04.655Z,4.17
2019-04-16T10:39:02.338Z,2.95
2019-04-16T10:41:49.598Z,7.75
2019-04-16T10:44:39.550Z,7.05
2019-04-16T10:47:48.987Z,6.05
2019-04-16T10:50:33.903Z,5.03
2019-04-16T10:53:43.841Z,3.77
2019-04-16T10:56:40.521Z,3.22
2019-04-16T10:59:30.406Z,3.10
2019-04-16T11:02:41.039Z,4.92
2019-04-16T11:05:36.862Z,3.33
2019-04-16T11:08:13.186Z,3.10
2019-04-16T11:10:45.807Z,4.62
2019-04-16T11:13:28.701Z,2.62
2019-04-16T11:16:05.987Z,1.77
2019-04-16T11:18:41.107Z,1.62
2019-04-16T11:21:13.927Z,1.75
2019-04-16T11:23:47.481Z,1.57
2019-04-16T11:26:20.385Z,1.70
2019-04-16T11:28:52.425Z,2.02
2019-04-16T11:31:27.072Z,2.08
2019-04-16T11:33:58.454Z,1.67
2019-04-16T11:36:31.641Z,1.82
2019-04-16T11:39:05.823Z,1.62
2019-04-16T11:41:37.902Z,1.70
2019-04-16T11:44:15.634Z,1.82
2019-04-16T11:46:43.487Z,1.77
2019-04-16T11:49:18.427Z,1.65
2019-04-16T11:51:50.397Z,1.82
2019-04-16T11:54:22.139Z,2.25
2019-04-16T11:56:59.455Z,1.72
2019-04-16T11:59:29.475Z,1.75
2019-04-16T12:02:10.649Z,1.65
2019-04-16T12:05:00.842Z,3.67
2019-04-16T12:07:40.894Z,1.80
2019-04-16T12:10:30.514Z,3.05
2019-04-16T12:13:22.039Z,7.00
2019-04-16T12:16:13.628Z,25.12
2019-04-16T12:19:02.967Z,3.27
2019-04-16T12:21:49.587Z,1.92
2019-04-16T12:24:39.860Z,15.43
2019-04-16T12:27:39.374Z,2.30
2019-04-16T12:30:34.378Z,4.05
2019-04-16T12:33:25.002Z,36.53
2019-04-16T12:36:15.673Z,40.63
2019-04-16T12:38:59.027Z,37.50
2019-04-16T12:41:39.075Z,17.65
2019-04-16T12:44:25.348Z,4.80
2019-04-16T12:47:08.215Z,28.45
2019-04-16T12:49:44.727Z,122.75
2019-04-16T12:52:44.494Z,198.65
2019-04-16T12:55:38.497Z,145.53
2019-04-16T12:58:20.113Z,73.55
2019-04-16T13:01:23.271Z,9.03
2019-04-16T13:04:02.884Z,37.20
2019-04-16T13:06:53.418Z,71.62
2019-04-16T13:09:46.844Z,51.88
2019-04-16T13:12:40.361Z,44.98
2019-04-16T13:15:31.912Z,7.08
2019-04-16T13:18:16.987Z,36.98
2019-04-16T13:21:06.359Z,41.80
2019-04-16T13:24:03.135Z,91.82
2019-04-16T13:26:41.307Z,6.08
2019-04-16T13:29:18.299Z,1.82
2019-04-16T13:31:50.125Z,1.80
2019-04-16T13:34:22.396Z,2.15
2019-04-16T13:36:59.230Z,100.18
2019-04-16T13:40:05.425Z,27.25
2019-04-16T13:42:37.428Z,9.33
2019-04-16T13:45:28.343Z,2.02
2019-04-16T13:48:15.373Z,1.35
2019-04-16T13:50:43.019Z,1.55
2019-04-16T13:53:31.721Z,32.73
2019-04-16T13:56:25.339Z,12.93
2019-04-16T13:59:07.808Z,28.67
2019-04-16T14:01:46.151Z,30.82
2019-04-16T14:04:18.369Z,6.22
2019-04-16T14:06:52.278Z,29.48
2019-04-16T14:09:24.041Z,9.93
2019-04-16T14:11:55.811Z,9.93
2019-04-16T14:14:27.588Z,4.75
2019-04-16T14:17:09.073Z,1.05
2019-04-16T14:19:34.736Z,14.07
2019-04-16T14:22:07.834Z,32.00
2019-04-16T14:24:39.636Z,4.28
2019-04-16T14:27:13.965Z,1.92
2019-04-16T14:29:45.622Z,5.47
2019-04-16T14:32:18.659Z,16.82
2019-04-16T14:34:57.205Z,5.22
2019-04-16T14:37:28.975Z,3.47
2019-04-16T14:40:20.775Z,23.75
2019-04-16T14:42:57.463Z,6.65
2019-04-16T14:45:50.089Z,4.10
2019-04-16T14:48:09.636Z,1.98
2019-04-16T14:50:41.010Z,2.05
2019-04-16T14:53:16.166Z,1.55
2019-04-16T14:56:00.474Z,30.92
2019-04-16T14:58:58.736Z,67.15
2019-04-16T15:01:42.408Z,8.83
2019-04-16T15:04:43.153Z,10.85
2019-04-16T15:07:27.840Z,9.90
2019-04-16T15:10:17.345Z,2.33
2019-04-16T15:13:11.084Z,25.30
2019-04-16T15:16:10.721Z,30.17
2019-04-16T15:19:03.142Z,8.85
2019-04-16T15:22:09.759Z,21.95
2019-04-16T15:25:12.489Z,10.15
2019-04-16T15:27:49.861Z,19.65
2019-04-16T15:31:01.879Z,8.53
2019-04-16T15:33:39.017Z,1.62
2019-04-16T15:36:18.441Z,1.50
2019-04-16T15:39:02.952Z,4.15
2019-04-16T15:41:53.434Z,3.30
2019-04-16T15:44:52.610Z,1.70
2019-04-16T15:48:00.675Z,1.92
2019-04-16T15:50:49.984Z,2.50
2019-04-16T15:53:55.820Z,9.50
2019-04-16T15:56:46.390Z,7.22
2019-04-16T15:59:28.860Z,10.13
2019-04-16T16:02:31.644Z,2.77
2019-04-16T16:05:12.977Z,13.30
2019-04-16T16:08:02.729Z,6.70
2019-04-16T16:10:45.136Z,3.30
2019-04-16T16:13:14.680Z,4.03
2019-04-16T16:15:46.436Z,2.17
2019-04-16T16:18:18.236Z,1.85
2019-04-16T16:20:50.045Z,7.12
2019-04-16T16:23:22.422Z,7.50
2019-04-16T16:25:54.344Z,1.50
2019-04-16T16:28:26.149Z,1.60
2019-04-16T16:31:00.412Z,2.77
2019-04-16T16:33:33.835Z,2.50
2019-04-16T16:36:06.590Z,3.17
2019-04-16T16:38:38.727Z,3.60
2019-04-16T16:41:10.621Z,12.58
2019-04-16T16:43:44.750Z,4.92
2019-04-16T16:46:55.751Z,4.83
2019-04-16T16:49:14.958Z,6.12
2019-04-16T16:52:08.691Z,7.55
2019-04-16T16:54:40.892Z,4.35
2019-04-16T16:57:22.132Z,6.97
2019-04-16T17:00:09.898Z,6.62
2019-04-16T17:02:50.589Z,4.90
2019-04-16T17:05:31.345Z,7.00
2019-04-16T17:08:04.658Z,6.58
2019-04-16T17:10:36.412Z,5.75
2019-04-16T17:13:13.309Z,9.30
2019-04-16T17:15:41.671Z,10.28
2019-04-16T17:18:13.794Z,8.23
2019-04-16T17:20:45.537Z,7.83
2019-04-16T17:23:17.385Z,4.33
2019-04-16T17:25:52.290Z,4.60
2019-04-16T17:28:24.144Z,4.45
2019-04-16T17:30:56.317Z,5.37
2019-04-16T17:33:28.077Z,7.53
2019-04-16T17:35:59.896Z,6.67
2019-04-16T17:38:33.845Z,6.10
2019-04-16T17:41:09.644Z,4.70
2019-04-16T17:44:04.069Z,7.60
2019-04-16T17:47:07.045Z,6.47
2019-04-16T17:49:50.558Z,5.30
2019-04-16T17:52:47.304Z,6.12
2019-04-16T17:55:46.875Z,5.03
2019-04-16T17:58:27.388Z,3.75
2019-04-16T18:01:24.293Z,3.33
2019-04-16T18:04:13.826Z,3.65
2019-04-16T18:06:55.754Z,3.17
2019-04-16T18:09:36.359Z,3.83
2019-04-16T18:12:30.148Z,4.17
2019-04-16T18:15:09.673Z,4.75
2019-04-16T18:18:06.926Z,3.10
2019-04-16T18:21:15.885Z,3.20
2019-04-16T18:24:12.113Z,3.52
2019-04-16T18:27:05.738Z,5.12
2019-04-16T18:29:51.542Z,4.10
2019-04-16T18:32:45.242Z,4.55
2019-04-16T18:35:23.643Z,3.55
2019-04-16T18:38:08.147Z,3.87
2019-04-16T18:41:20.923Z,3.05
2019-04-16T18:44:11.779Z,4.10
2019-04-16T18:47:10.798Z,7.28
2019-04-16T18:49:43.438Z,4.37
2019-04-16T18:52:15.457Z,4.08
2019-04-16T18:54:49.333Z,7.92
2019-04-16T18:57:20.847Z,4.80
2019-04-16T18:59:52.718Z,5.78
2019-04-16T19:02:27.467Z,7.72
2019-04-16T19:04:59.563Z,5.33
2019-04-16T19:07:33.321Z,6.12
2019-04-16T19:10:06.048Z,5.45
2019-04-16T19:12:39.084Z,5.05
2019-04-16T19:15:10.951Z,5.78
2019-04-16T19:17:42.946Z,4.90
2019-04-16T19:20:17.801Z,5.55
2019-04-16T19:22:52.051Z,6.50
2019-04-16T19:25:23.978Z,6.42
2019-04-16T19:27:55.960Z,5.62
2019-04-16T19:30:30.996Z,6.55
2019-04-16T19:33:04.180Z,5.22
2019-04-16T19:35:38.309Z,5.53
2019-04-16T19:38:10.604Z,4.90
2019-04-16T19:40:42.588Z,5.10
2019-04-16T19:43:14.438Z,4.30
2019-04-16T19:45:46.480Z,6.95
2019-04-16T19:48:34.548Z,5.55
2019-04-16T19:50:56.823Z,14.68
2019-04-16T19:53:28.728Z,5.75
2019-04-16T19:56:00.723Z,4.42
2019-04-16T19:58:33.570Z,5.83
2019-04-16T20:01:11.731Z,5.70
2019-04-16T20:03:43.621Z,6.47
2019-04-16T20:06:19.294Z,6.80
2019-04-16T20:08:51.756Z,5.17
2019-04-16T20:11:23.597Z,4.17
2019-04-16T20:13:55.536Z,6.97
2019-04-16T20:16:28.293Z,5.95
2019-04-16T20:19:00.324Z,5.25
2019-04-16T20:21:37.491Z,5.25
2019-04-16T20:24:07.725Z,5.72
2019-04-16T20:26:40.568Z,4.33
2019-04-16T20:29:14.471Z,6.05
2019-04-16T20:31:46.334Z,5.47
2019-04-16T20:34:18.499Z,6.90
2019-04-16T20:36:52.226Z,7.25
2019-04-16T20:39:25.392Z,6.00
2019-04-16T20:41:59.879Z,7.60
2019-04-16T20:44:33.825Z,6.40
2019-04-16T20:47:08.359Z,6.12
2019-04-16T20:49:40.631Z,5.42
2019-04-16T20:52:12.920Z,5.25
2019-04-16T20:54:50.487Z,7.03
2019-04-16T20:57:25.340Z,6.37
2019-04-16T20:59:55.990Z,5.80
2019-04-16T21:02:29.516Z,6.60
2019-04-16T21:05:04.378Z,6.53
2019-04-16T21:07:36.189Z,8.85
2019-04-16T21:10:08.872Z,6.97
2019-04-16T21:12:45.079Z,6.80
2019-04-16T21:15:14.871Z,6.17
2019-04-16T21:17:46.678Z,7.03
2019-04-16T21:20:20.274Z,6.87
2019-04-16T21:22:53.017Z,6.62
2019-04-16T21:25:26.502Z,6.22
2019-04-16T21:28:24.451Z,6.45
2019-04-16T21:31:00.791Z,7.00
2019-04-16T21:33:49.187Z,6.05
2019-04-16T21:36:33.923Z,6.47
2019-04-16T21:39:09.321Z,6.83
2019-04-16T21:41:42.701Z,7.53
2019-04-16T21:44:14.554Z,6.40
2019-04-16T21:46:46.350Z,5.60
2019-04-16T21:49:18.190Z,6.17
2019-04-16T21:52:08.527Z,7.20
2019-04-16T21:54:40.375Z,7.42
2019-04-16T21:57:13.620Z,5.95
2019-04-16T21:59:45.738Z,6.50
2019-04-16T22:02:37.845Z,6.92
2019-04-16T22:05:10.989Z,7.95
2019-04-16T22:07:42.944Z,8.18
2019-04-16T22:10:14.904Z,9.20
2019-04-16T22:12:47.611Z,9.03
2019-04-16T22:15:25.181Z,8.00
2019-04-16T22:17:53.969Z,8.48
2019-04-16T22:20:25.815Z,6.87
2019-04-16T22:22:57.625Z,7.37
2019-04-16T22:25:29.447Z,7.12
2019-04-16T22:28:03.551Z,7.00
2019-04-16T22:30:35.303Z,6.92
2019-04-16T22:33:08.940Z,7.45
2019-04-16T22:35:41.026Z,7.78
2019-04-16T22:38:14.410Z,6.62
2019-04-16T22:41:05.108Z,7.80
2019-04-16T22:43:53.758Z,7.20
2019-04-16T22:46:44.380Z,8.03
2019-04-16T22:49:18.569Z,8.33
2019-04-16T22:51:50.189Z,8.05
2019-04-16T22:54:21.948Z,7.03
2019-04-16T22:57:02.663Z,8.15
2019-04-16T22:59:39.113Z,7.72
2019-04-16T23:02:18.378Z,8.83
2019-04-16T23:04:50.113Z,9.00
2019-04-16T23:07:21.855Z,9.25
2019-04-16T23:09:53.717Z,9.10
2019-04-16T23:12:28.101Z,8.98
2019-04-16T23:14:59.056Z,9.43
2019-04-16T23:17:46.160Z,10.45
2019-04-16T23:20:28.710Z,10.13
2019-04-16T23:22:50.420Z,10.48
2019-04-16T23:25:44.511Z,10.30
2019-04-16T23:28:16.473Z,10.78
2019-04-16T23:30:51.299Z,10.78
2019-04-16T23:33:23.752Z,11.70
2019-04-16T23:35:55.478Z,11.03
2019-04-16T23:38:31.192Z,10.98
2019-04-16T23:41:03.234Z,11.40
2019-04-16T23:44:10.599Z,13.32
2019-04-16T23:47:16.205Z,10.45
2019-04-16T23:49:54.478Z,11.10
2019-04-16T23:52:39.035Z,10.82
2019-04-16T23:55:21.395Z,12.60
2019-04-16T23:58:06.670Z,11.33
